Time;durP1;ratioP1;P1;durP2;ratioP2;P2;SDS_P1;SDS_P2;PMS_P1;PMS_P2;Temp;Humidity;BMP_temperature;BMP_pressure;BME280_temperature;BME280_humidity;BME280_pressure;Samples;Min_cycle;Max_cycle;Signal;HPM_P1;HPM_P2
2021/10/28 00:14:39;;;;;;;39.65;26.10;;;;;;;5.24;69.86;100200.23;1738474;82;21026;-37
2021/10/28 00:17:11;;;;;;;36.88;25.60;;;;;;;5.24;70.00;100194.05;1738782;82;21101;-36
2021/10/28 00:19:40;;;;;;;40.33;26.90;;;;;;;5.26;69.86;100189.19;1732950;82;20957;-36
2021/10/28 00:22:08;;;;;;;40.03;26.80;;;;;;;5.27;69.74;100184.06;1738601;82;21063;-36
2021/10/28 00:24:34;;;;;;;45.52;29.25;;;;;;;5.29;69.77;100191.80;1738505;82;21507;-37
2021/10/28 00:27:01;;;;;;;40.43;25.72;;;;;;;5.27;69.80;100182.72;1738425;81;21500;-36
2021/10/28 00:29:28;;;;;;;35.28;24.90;;;;;;;5.24;69.78;100185.99;1738548;82;21122;-36
2021/10/28 00:31:59;;;;;;;34.35;24.67;;;;;;;5.28;69.67;100185.63;1739425;81;20961;-36
2021/10/28 00:34:24;;;;;;;36.48;25.62;;;;;;;5.29;69.72;100180.50;1743443;82;21547;-37
2021/10/28 00:36:52;;;;;;;44.77;27.32;;;;;;;5.28;69.75;100183.52;1744322;82;21016;-36
2021/10/28 00:39:19;;;;;;;39.40;25.75;;;;;;;5.23;69.75;100179.02;1756531;81;21579;-37
2021/10/28 00:41:46;;;;;;;38.40;25.43;;;;;;;5.20;69.75;100172.92;1760279;80;21104;-36
2021/10/28 00:44:12;;;;;;;39.70;27.48;;;;;;;5.13;69.91;100173.90;1759900;81;21111;-36
2021/10/28 00:46:40;;;;;;;39.42;26.87;;;;;;;5.06;70.13;100185.05;1760183;81;20965;-36
2021/10/28 00:49:09;;;;;;;34.80;24.75;;;;;;;5.06;70.21;100170.82;1759876;81;21349;-36
2021/10/28 00:51:37;;;;;;;33.20;25.25;;;;;;;4.80;70.07;100108.78;1760407;81;21017;-37
2021/10/28 00:54:05;;;;;;;37.75;25.82;;;;;;;5.17;70.05;100158.20;1751793;81;21492;-37
2021/10/28 00:56:32;;;;;;;42.00;27.55;;;;;;;5.20;70.21;100158.13;1738840;81;20880;-36
2021/10/28 00:59:01;;;;;;;39.83;27.35;;;;;;;5.22;70.33;100147.88;1738690;82;20966;-36
2021/10/28 01:01:29;;;;;;;37.05;26.70;;;;;;;5.23;70.32;100152.14;1738850;82;21030;-36
2021/10/28 01:03:56;;;;;;;39.38;27.20;;;;;;;5.19;70.31;100153.30;1738650;82;21037;-37
2021/10/28 01:06:22;;;;;;;39.33;25.80;;;;;;;5.18;70.27;100158.42;1738663;81;21776;-36
2021/10/28 01:08:49;;;;;;;39.70;26.40;;;;;;;5.23;70.09;100158.86;1744568;81;21005;-36
2021/10/28 01:11:15;;;;;;;40.12;26.60;;;;;;;5.29;70.03;100164.38;1755113;80;21020;-36
2021/10/28 01:13:43;;;;;;;39.48;27.25;;;;;;;5.29;70.13;100161.68;1754858;81;20986;-37
2021/10/28 01:16:10;;;;;;;44.90;28.55;;;;;;;5.30;70.13;100155.76;1754922;80;21044;-37
2021/10/28 01:18:38;;;;;;;46.35;29.25;;;;;;;5.29;70.12;100153.61;1754920;81;21144;-37
2021/10/28 01:21:07;;;;;;;43.10;28.23;;;;;;;5.28;70.19;100156.63;1755235;81;20953;-37
2021/10/28 01:23:34;;;;;;;45.55;28.60;;;;;;;5.23;70.24;100152.14;1754889;81;20997;-36
2021/10/28 01:26:05;;;;;;;37.13;26.55;;;;;;;5.19;70.21;100147.92;1755077;81;20996;-36
2021/10/28 01:28:36;;;;;;;38.70;27.50;;;;;;;5.23;70.23;100149.45;1754794;81;21014;-36
2021/10/28 01:31:06;;;;;;;38.95;26.97;;;;;;;5.26;70.21;100143.48;1754751;81;21141;-36
2021/10/28 01:33:32;;;;;;;38.83;28.12;;;;;;;5.21;70.32;100141.70;1754846;81;20969;-36
2021/10/28 01:35:59;;;;;;;40.75;28.87;;;;;;;5.20;70.39;100135.28;1754783;81;21660;-36
2021/10/28 01:38:25;;;;;;;44.65;28.47;;;;;;;5.19;70.38;100132.34;1754751;81;20977;-37
2021/10/28 01:40:58;;;;;;;40.08;27.45;;;;;;;5.14;70.40;100132.46;1755077;81;20982;-36
2021/10/28 01:43:25;;;;;;;40.50;27.20;;;;;;;5.11;70.42;100127.70;1754690;81;21116;-36
2021/10/28 01:45:52;;;;;;;42.00;27.70;;;;;;;5.15;70.32;100128.69;1754706;81;20934;-37
2021/10/28 01:48:19;;;;;;;37.58;27.27;;;;;;;5.19;70.13;100128.31;1754974;81;20989;-36
2021/10/28 01:50:47;;;;;;;43.85;28.60;;;;;;;5.16;70.24;100125.70;1754776;81;21527;-37
2021/10/28 01:53:14;;;;;;;41.28;29.00;;;;;;;5.12;70.40;100123.92;1755008;81;21052;-37
2021/10/28 01:55:41;;;;;;;43.90;29.67;;;;;;;5.08;70.55;100124.30;1754540;81;21133;-37
2021/10/28 01:58:08;;;;;;;42.53;28.15;;;;;;;5.03;70.64;100124.41;1754888;81;21550;-36
2021/10/28 02:00:35;;;;;;;41.35;26.10;;;;;;;4.96;70.78;100126.16;1754522;80;20957;-36
2021/10/28 02:03:02;;;;;;;42.35;28.47;;;;;;;4.96;70.90;100126.16;1754779;81;20929;-36
2021/10/28 02:05:29;;;;;;;44.55;28.57;;;;;;;5.01;70.93;100119.88;1755209;81;21542;-36
2021/10/28 02:07:57;;;;;;;41.20;29.25;;;;;;;5.05;70.97;100117.62;1754784;81;21126;-37
2021/10/28 02:10:24;;;;;;;42.38;29.35;;;;;;;5.06;70.92;100121.91;1740259;80;21516;-36
2021/10/28 02:12:51;;;;;;;43.65;30.95;;;;;;;5.03;70.95;100117.14;1738774;82;21071;-37
2021/10/28 02:15:19;;;;;;;38.67;27.75;;;;;;;5.03;71.02;100121.72;1738737;82;21024;-37
2021/10/28 02:17:46;;;;;;;40.03;26.17;;;;;;;5.04;70.95;100125.97;1738609;82;21579;-37
2021/10/28 02:20:14;;;;;;;43.08;29.52;;;;;;;5.08;70.90;100128.33;1738694;82;21137;-37
2021/10/28 02:22:42;;;;;;;41.15;28.83;;;;;;;5.08;70.96;100133.70;1738515;82;21021;-37
2021/10/28 02:25:09;;;;;;;43.50;28.95;;;;;;;5.05;71.04;100135.63;1738706;82;21666;-37
2021/10/28 02:27:37;;;;;;;44.50;30.57;;;;;;;5.01;71.17;100134.66;1738530;82;21430;-37
2021/10/28 02:30:06;;;;;;;43.60;29.98;;;;;;;4.97;71.33;100139.05;1738609;82;21085;-37
2021/10/28 02:32:33;;;;;;;46.23;29.35;;;;;;;4.94;71.39;100139.09;1738670;82;21103;-36
2021/10/28 02:35:00;;;;;;;38.20;27.02;;;;;;;4.96;71.33;100136.11;1738749;81;21074;-36
2021/10/28 02:37:28;;;;;;;39.92;28.38;;;;;;;5.05;71.25;100131.60;1742769;81;21082;-37
2021/10/28 02:39:55;;;;;;;41.50;28.67;;;;;;;5.13;71.08;100138.95;1744545;82;21035;-36
2021/10/28 02:42:21;;;;;;;43.73;29.70;;;;;;;5.12;71.02;100127.41;1744279;82;21040;-36
2021/10/28 02:44:50;;;;;;;47.20;30.00;;;;;;;5.15;70.91;100126.80;1744557;80;21136;-37
2021/10/28 02:47:16;;;;;;;44.77;30.77;;;;;;;5.13;70.68;100122.83;1744111;82;21391;-36
2021/10/28 02:49:43;;;;;;;41.80;30.00;;;;;;;5.14;70.56;100124.40;1744269;81;21050;-36
2021/10/28 02:52:11;;;;;;;39.20;28.70;;;;;;;5.12;70.39;100121.23;1744300;82;21550;-36
2021/10/28 02:54:38;;;;;;;33.38;26.77;;;;;;;5.16;70.18;100112.80;1753062;81;21030;-37
2021/10/28 02:57:07;;;;;;;41.30;27.40;;;;;;;5.19;69.94;100113.53;1758213;81;21136;-36
2021/10/28 02:59:34;;;;;;;42.95;28.05;;;;;;;5.22;69.87;100119.11;1758601;81;21009;-36
2021/10/28 03:02:01;;;;;;;44.70;29.00;;;;;;;5.28;69.78;100125.13;1752964;81;20942;-37
2021/10/28 03:04:27;;;;;;;44.25;31.20;;;;;;;5.33;69.48;100121.53;1758590;81;21481;-37
2021/10/28 03:06:56;;;;;;;43.38;29.65;;;;;;;5.39;69.49;100118.42;1758484;81;21093;-37
2021/10/28 03:09:27;;;;;;;43.08;30.12;;;;;;;5.41;69.32;100122.95;1761505;81;21867;-37
2021/10/28 03:11:57;;;;;;;43.20;28.55;;;;;;;5.37;69.15;100119.84;1766728;81;21006;-37
2021/10/28 03:14:33;;;;;;;40.12;27.50;;;;;;;5.34;69.12;100116.41;1767144;81;20957;-37
2021/10/28 03:16:59;;;;;;;42.58;28.27;;;;;;;5.34;69.13;100115.86;1765025;81;21041;-36
2021/10/28 03:27:19;;;;;;;43.80;27.85;;;;;;;5.29;69.44;100115.98;1760935;81;21040;-36
2021/10/28 03:29:46;;;;;;;40.12;28.85;;;;;;;5.23;69.79;100109.92;1766519;81;20907;-36
2021/10/28 03:32:13;;;;;;;44.00;28.87;;;;;;;5.22;69.96;100108.91;1766566;81;21092;-37
2021/10/28 03:34:42;;;;;;;35.05;25.72;;;;;;;5.27;70.08;100111.47;1766480;81;21190;-36
2021/10/28 03:37:17;;;;;;;38.58;27.13;;;;;;;5.34;70.01;100109.13;1766353;81;20965;-37
2021/10/28 04:17:26;;;;;;;44.10;30.10;;;;;;;6.21;70.75;100101.77;1758295;81;21005;-37
2021/10/28 04:30:22;;;;;;;37.95;27.32;;;;;;;6.44;72.44;100101.91;1758381;81;21380;-37
2021/10/28 04:32:50;;;;;;;41.02;27.90;;;;;;;6.53;73.10;100101.95;1758298;81;21025;-37
2021/10/28 04:35:17;;;;;;;41.28;28.75;;;;;;;6.59;73.56;100099.87;1758661;81;21033;-37
2021/10/28 04:37:45;;;;;;;38.92;27.77;;;;;;;6.65;73.79;100108.84;1758603;81;21041;-37
2021/10/28 04:40:14;;;;;;;41.85;27.85;;;;;;;6.71;73.84;100098.71;1758470;81;21177;-37
2021/10/28 04:42:40;;;;;;;38.50;26.77;;;;;;;6.83;73.67;100089.44;1753213;81;21046;-37
2021/10/28 04:45:08;;;;;;;39.63;28.20;;;;;;;6.88;73.63;100095.47;1758611;81;21022;-37
2021/10/28 04:47:36;;;;;;;40.52;28.85;;;;;;;6.92;73.50;100105.84;1758478;81;20961;-37
2021/10/28 04:50:05;;;;;;;43.48;28.32;;;;;;;6.93;73.47;100099.35;1758628;81;20978;-37
2021/10/28 04:52:34;;;;;;;38.48;27.48;;;;;;;6.95;73.39;100095.00;1758462;81;20949;-37
2021/10/28 04:55:00;;;;;;;41.13;27.65;;;;;;;7.04;73.18;100097.14;1758559;81;20997;-36
2021/10/28 04:57:27;;;;;;;41.08;29.30;;;;;;;7.10;72.92;100098.58;1758750;81;21016;-37
2021/10/28 04:59:53;;;;;;;40.80;29.40;;;;;;;7.11;72.75;100110.95;1758730;81;21076;-37
2021/10/28 05:02:20;;;;;;;40.08;27.65;;;;;;;7.12;72.74;100109.81;1758795;81;21006;-37
2021/10/28 05:04:47;;;;;;;35.23;26.42;;;;;;;7.17;72.66;100106.96;1753282;81;21548;-37
2021/10/28 05:07:14;;;;;;;37.73;26.57;;;;;;;7.23;72.42;100100.85;1758641;81;20994;-37
2021/10/28 05:09:41;;;;;;;44.45;29.12;;;;;;;7.28;72.26;100109.58;1759576;81;21034;-37
2021/10/28 05:12:09;;;;;;;47.88;29.65;;;;;;;7.25;72.23;100106.19;1764093;81;21504;-37
2021/10/28 05:14:37;;;;;;;43.65;29.18;;;;;;;7.24;72.32;100107.28;1764117;81;21025;-37
2021/10/28 05:17:05;;;;;;;38.40;26.80;;;;;;;7.28;72.24;100108.78;1764002;81;21135;-37
2021/10/28 05:19:37;;;;;;;35.05;26.65;;;;;;;7.37;72.20;100115.75;1764058;81;21033;-37
2021/10/28 05:22:00;;;;;;;40.23;27.75;;;;;;;7.46;71.92;100111.69;1763436;81;21030;-37
2021/10/28 05:24:27;;;;;;;37.67;27.65;;;;;;;7.47;71.81;100106.53;1764196;81;21000;-37
2021/10/28 05:26:55;;;;;;;38.50;29.25;;;;;;;7.49;71.70;100111.06;1764228;81;20969;-37
2021/10/28 05:29:21;;;;;;;38.98;27.58;;;;;;;7.49;71.55;100112.97;1764297;81;21797;-37
2021/10/28 05:31:48;;;;;;;37.03;26.23;;;;;;;7.52;71.43;100115.81;1764164;81;20973;-37
2021/10/28 05:34:14;;;;;;;40.85;28.25;;;;;;;7.58;71.31;100113.74;1764174;81;20938;-37
2021/10/28 05:36:41;;;;;;;44.50;29.32;;;;;;;7.62;71.09;100120.08;1764028;81;21009;-37
2021/10/28 05:39:08;;;;;;;41.50;29.15;;;;;;;7.59;71.12;100127.47;1764071;81;21056;-37
2021/10/28 05:41:35;;;;;;;40.65;28.40;;;;;;;7.56;71.16;100129.45;1764144;81;21128;-37
2021/10/28 05:44:02;;;;;;;37.15;26.87;;;;;;;7.52;71.19;100120.41;1764212;81;21611;-37
2021/10/28 05:46:29;;;;;;;37.53;27.55;;;;;;;7.50;71.27;100125.35;1764226;81;21587;-37
2021/10/28 05:48:56;;;;;;;40.00;27.85;;;;;;;7.53;71.41;100131.45;1764247;81;20958;-36
2021/10/28 05:51:25;;;;;;;40.58;29.37;;;;;;;7.56;71.43;100128.89;1764326;81;21523;-37
2021/10/28 05:53:52;;;;;;;42.53;29.48;;;;;;;7.56;71.43;100138.33;1734833;81;21009;-37
2021/10/28 05:56:19;;;;;;;41.80;28.30;;;;;;;7.57;71.53;100131.03;1764072;81;21547;-37
2021/10/28 05:58:45;;;;;;;43.10;28.85;;;;;;;7.60;71.34;100137.16;1764255;81;20958;-37
2021/10/28 06:01:12;;;;;;;39.70;28.10;;;;;;;7.65;71.26;100137.00;1763990;81;20962;-37
2021/10/28 06:03:38;;;;;;;34.92;26.85;;;;;;;7.70;71.21;100134.89;1764253;81;21523;-37
2021/10/28 06:06:05;;;;;;;40.28;28.70;;;;;;;7.69;71.16;100136.03;1764098;81;21147;-37
2021/10/28 06:08:33;;;;;;;44.35;29.35;;;;;;;7.69;71.13;100140.08;1764092;81;21061;-37
2021/10/28 06:11:02;;;;;;;41.92;28.05;;;;;;;7.69;71.18;100133.88;1772909;80;20981;-37
2021/10/28 06:13:29;;;;;;;42.78;29.65;;;;;;;7.70;71.35;100130.84;1777955;80;21492;-37
2021/10/28 06:15:58;;;;;;;43.08;29.40;;;;;;;7.75;71.18;100132.58;1777649;80;21096;-37
2021/10/28 06:20:55;;;;;;;45.10;31.00;;;;;;;7.78;71.36;100135.45;1777822;80;21011;-37
2021/10/28 06:23:22;;;;;;;40.67;27.30;;;;;;;7.77;71.36;100133.06;1777787;80;20953;-37
2021/10/28 06:25:48;;;;;;;40.98;28.40;;;;;;;7.83;71.41;100134.48;1777813;80;21084;-37
2021/10/28 06:28:15;;;;;;;39.73;27.93;;;;;;;7.91;71.34;100130.16;1778201;80;21434;-37
2021/10/28 06:30:41;;;;;;;41.15;29.77;;;;;;;8.00;71.20;100141.16;1777946;80;21062;-37
2021/10/28 06:33:15;;;;;;;41.28;29.23;;;;;;;8.02;71.13;100141.65;1778111;80;20957;-37
2021/10/28 06:35:38;;;;;;;39.20;27.80;;;;;;;8.04;71.16;100146.70;1776581;80;21480;-37
2021/10/28 06:38:05;;;;;;;40.20;28.30;;;;;;;8.07;71.14;100148.78;1777976;80;21590;-37
2021/10/28 06:40:33;;;;;;;40.50;25.92;;;;;;;8.08;71.21;100149.81;1777912;80;20997;-37
2021/10/28 06:43:00;;;;;;;39.40;27.02;;;;;;;8.18;71.13;100154.84;1777737;80;21195;-37
2021/10/28 06:45:26;;;;;;;38.25;27.95;;;;;;;8.23;70.94;100154.66;1778833;80;20908;-37
2021/10/28 06:47:53;;;;;;;43.45;28.32;;;;;;;8.25;70.89;100156.48;1779252;80;21541;-37
2021/10/28 06:50:20;;;;;;;42.90;26.62;;;;;;;8.29;70.95;100163.38;1773717;80;20948;-37
2021/10/28 06:55:25;;;;;;;38.23;26.55;;;;;;;8.44;70.67;100164.22;1777948;80;21887;-37
2021/10/28 07:03:06;;;;;;;41.20;27.25;;;;;;;8.62;70.43;100166.27;1777848;80;21449;-38
2021/10/28 07:05:33;;;;;;;37.70;24.77;;;;;;;8.67;70.28;100173.63;1777811;80;21001;-37
2021/10/28 07:08:01;;;;;;;34.67;25.72;;;;;;;8.75;70.15;100163.91;1777757;80;21184;-37
2021/10/28 07:10:30;;;;;;;37.63;25.90;;;;;;;8.83;69.85;100165.75;1772469;80;20934;-37
2021/10/28 07:13:03;;;;;;;34.43;26.50;;;;;;;8.86;69.70;100161.03;1758467;81;21054;-37
2021/10/28 07:15:31;;;;;;;43.48;27.25;;;;;;;8.86;69.63;100161.03;1757392;81;21018;-37
2021/10/28 07:29:08;;;;;;;37.45;25.68;;;;;;;8.97;69.87;100147.92;1758756;81;21049;-37
2021/10/28 07:34:22;;;;;;;37.05;25.52;;;;;;;9.09;69.65;100151.50;1758342;81;21859;-37
2021/10/28 08:19:40;;;;;;;34.53;24.02;;;;;;;10.23;67.89;100114.84;1728043;82;21017;-37
2021/10/28 08:22:20;;;;;;;32.98;22.42;;;;;;;10.29;67.61;100116.21;1732612;82;21800;-38
2021/10/28 08:29:03;;;;;;;31.52;22.98;;;;;;;10.45;67.10;100113.05;1788056;80;20994;-36
2021/10/28 08:31:22;;;;;;;33.85;23.22;;;;;;;10.55;67.03;100113.95;1785936;80;21977;-37
2021/10/28 08:33:49;;;;;;;32.55;21.97;;;;;;;10.63;66.67;100113.03;1788049;80;20882;-37
2021/10/28 08:36:27;;;;;;;32.42;21.68;;;;;;;10.72;66.60;100113.69;1788024;80;20993;-37
2021/10/28 08:38:55;;;;;;;30.75;22.55;;;;;;;10.81;66.29;100114.35;1781956;80;20968;-37
2021/10/28 08:41:23;;;;;;;32.90;23.22;;;;;;;10.97;65.83;100125.84;1788352;80;21012;-37
2021/10/28 08:43:51;;;;;;;27.32;20.52;;;;;;;11.07;65.45;100119.38;1788392;80;21139;-37
2021/10/28 08:46:18;;;;;;;33.88;22.80;;;;;;;11.16;65.18;100111.09;1788170;80;20989;-37
2021/10/28 08:48:51;;;;;;;37.25;23.90;;;;;;;11.25;65.08;100111.73;1783922;80;20988;-37
2021/10/28 08:51:32;;;;;;;30.92;21.87;;;;;;;11.35;64.70;100119.39;1778050;80;20918;-37
2021/10/28 09:24:45;;;;;;;28.73;20.45;;;;;;;11.72;63.23;100134.92;1734766;81;21146;-37
2021/10/28 09:27:20;;;;;;;30.82;21.73;;;;;;;11.79;63.24;100131.65;1752113;81;21565;-37
2021/10/28 09:29:52;;;;;;;33.38;21.62;;;;;;;11.90;63.03;100136.80;1752159;81;20945;-37
2021/10/28 09:51:46;;;;;;;29.57;19.30;;;;;;;12.19;61.94;100119.50;1751441;82;21183;-37
2021/10/28 09:59:50;;;;;;;32.65;19.77;;;;;;;12.27;62.02;100117.73;1782485;80;20957;-37
2021/10/28 10:03:13;;;;;;;26.25;17.98;;;;;;;12.37;61.77;100120.48;1782703;80;21326;-37
2021/10/28 10:04:56;;;;;;;28.12;17.82;;;;;;;12.46;61.27;100130.61;1763212;80;21799;-37
2021/10/28 10:07:24;;;;;;;26.63;17.97;;;;;;;12.54;61.27;100124.97;1782753;80;20945;-37
2021/10/28 10:09:51;;;;;;;28.62;18.35;;;;;;;12.64;61.07;100129.08;1782450;80;20953;-37
2021/10/28 10:12:18;;;;;;;24.98;16.73;;;;;;;12.69;60.65;100117.92;1782564;80;20937;-37
2021/10/28 10:14:46;;;;;;;21.77;16.62;;;;;;;12.72;60.49;100123.23;1782642;80;21484;-37
2021/10/28 10:17:13;;;;;;;26.17;18.17;;;;;;;12.75;60.59;100125.23;1782721;80;21606;-37
2021/10/28 10:19:45;;;;;;;24.52;15.95;;;;;;;12.80;60.45;100129.05;1782552;80;21704;-37
2021/10/28 12:20:53;;;;;;;16.57;10.63;;;;;;;15.40;53.35;100129.02;1759398;80;20932;-38
2021/10/28 12:28:40;;;;;;;13.30;9.75;;;;;;;15.11;54.17;100127.89;1758527;80;21527;-38
2021/10/28 12:48:08;;;;;;;14.83;9.78;;;;;;;14.72;55.58;100124.63;1781661;80;20976;-38
2021/10/28 12:55:57;;;;;;;14.65;9.03;;;;;;;14.68;55.83;100123.80;1782124;80;20992;-38
2021/10/28 13:04:19;;;;;;;15.88;10.25;;;;;;;14.56;55.99;100134.94;1747668;80;21013;-38
2021/10/28 14:14:41;;;;;;;14.75;8.03;;;;;;;14.39;57.49;100156.68;1698946;81;21153;-38
2021/10/28 14:25:47;;;;;;;9.85;7.47;;;;;;;14.49;57.48;100162.89;1727483;83;21564;-39
2021/10/28 14:36:17;;;;;;;11.75;7.37;;;;;;;14.39;57.87;100167.59;1762505;81;21012;-39
2021/10/28 15:30:24;;;;;;;16.05;9.75;;;;;;;14.18;58.45;100198.02;1761583;80;20941;-37
2021/10/28 15:34:51;;;;;;;15.03;9.48;;;;;;;14.15;58.54;100204.17;1772600;80;21106;-37
2021/10/28 15:39:46;;;;;;;17.57;10.28;;;;;;;14.14;58.73;100212.14;1757625;80;21004;-37
2021/10/28 15:42:34;;;;;;;13.48;8.35;;;;;;;14.13;58.79;100214.67;1742196;81;21062;-37
2021/10/28 16:22:04;;;;;;;11.28;7.62;;;;;;;14.04;59.36;100254.98;1767883;80;21472;-37
2021/10/28 16:24:34;;;;;;;11.25;7.58;;;;;;;14.03;59.41;100258.89;1750148;80;21389;-37
2021/10/28 16:27:02;;;;;;;12.88;8.48;;;;;;;14.01;59.48;100257.08;1773519;80;21141;-37
2021/10/28 16:29:29;;;;;;;12.28;8.45;;;;;;;14.03;59.54;100262.19;1772252;80;21077;-37
2021/10/28 16:31:56;;;;;;;11.53;7.85;;;;;;;14.05;59.51;100263.39;1760338;80;21018;-37
2021/10/28 16:34:25;;;;;;;12.65;8.48;;;;;;;14.10;59.50;100263.67;1748346;82;21035;-37
2021/10/28 16:36:52;;;;;;;15.20;8.35;;;;;;;14.16;59.54;100271.20;1748293;82;21081;-37
2021/10/28 16:39:19;;;;;;;11.00;7.67;;;;;;;14.20;59.47;100275.36;1748527;82;21770;-37
2021/10/28 16:41:49;;;;;;;14.83;9.48;;;;;;;14.22;59.46;100273.86;1748341;82;20992;-37
2021/10/28 16:44:18;;;;;;;12.07;8.18;;;;;;;14.25;59.40;100265.52;1771494;80;21088;-37
2021/10/28 16:46:46;;;;;;;11.57;8.38;;;;;;;14.27;59.40;100266.75;1772115;80;21025;-37
2021/10/28 16:49:12;;;;;;;11.65;8.70;;;;;;;14.27;59.27;100272.20;1762384;80;21033;-37
2021/10/28 16:51:40;;;;;;;14.33;9.10;;;;;;;14.26;59.31;100271.98;1750771;80;21544;-37
2021/10/28 16:54:08;;;;;;;17.42;9.48;;;;;;;14.26;59.32;100282.09;1766654;80;21020;-39
2021/10/28 16:56:35;;;;;;;15.63;9.93;;;;;;;14.22;59.38;100280.68;1756614;80;21650;-39
2021/10/28 16:59:01;;;;;;;14.73;9.00;;;;;;;14.16;59.55;100282.11;1748858;82;21381;-39
2021/10/28 17:01:28;;;;;;;16.02;9.90;;;;;;;14.12;59.69;100283.98;1748823;82;21058;-39
2021/10/28 17:03:55;;;;;;;12.90;9.38;;;;;;;14.05;59.88;100285.20;1748779;82;22333;-39
2021/10/28 17:06:22;;;;;;;14.07;9.03;;;;;;;14.02;60.07;100291.38;1748622;82;21604;-39
2021/10/28 17:08:54;;;;;;;13.75;9.03;;;;;;;14.05;60.12;100291.23;1750664;80;20958;-39
2021/10/28 17:11:17;;;;;;;14.13;9.08;;;;;;;14.07;60.14;100294.39;1772449;80;21029;-39
2021/10/28 17:13:46;;;;;;;14.28;8.60;;;;;;;14.08;60.17;100296.77;1766430;80;21492;-39
2021/10/28 17:16:12;;;;;;;15.13;9.23;;;;;;;14.07;60.19;100299.28;1754300;80;21082;-39
2021/10/28 17:18:39;;;;;;;14.78;9.68;;;;;;;14.07;60.16;100303.36;1742311;81;21053;-39
2021/10/28 17:21:06;;;;;;;14.28;10.48;;;;;;;14.07;60.19;100300.64;1742650;82;20942;-39
2021/10/28 17:23:37;;;;;;;14.83;10.50;;;;;;;14.08;60.11;100303.59;1771339;80;21008;-39
2021/10/28 17:26:03;;;;;;;17.03;11.37;;;;;;;14.06;60.11;100305.88;1757928;80;21044;-39
2021/10/28 17:28:35;;;;;;;16.70;11.38;;;;;;;14.02;60.17;100306.38;1727125;82;21121;-39
2021/10/28 17:31:02;;;;;;;15.65;11.00;;;;;;;13.98;60.26;100306.89;1723632;83;21398;-39
2021/10/28 17:33:30;;;;;;;18.70;10.65;;;;;;;13.96;60.37;100302.35;1724084;83;20949;-39
2021/10/28 17:35:57;;;;;;;18.02;10.95;;;;;;;13.95;60.43;100313.03;1752138;81;21081;-39
2021/10/28 17:38:25;;;;;;;19.92;10.68;;;;;;;13.97;60.49;100312.69;1765684;81;20994;-39
2021/10/28 17:40:53;;;;;;;16.32;10.90;;;;;;;13.97;60.50;100317.57;1766093;81;21131;-39
2021/10/28 17:43:21;;;;;;;17.02;11.33;;;;;;;13.98;60.57;100312.34;1771532;81;21499;-39
2021/10/28 17:45:54;;;;;;;17.27;10.82;;;;;;;13.94;60.68;100315.58;1758754;81;20926;-39
2021/10/28 17:48:16;;;;;;;15.75;10.65;;;;;;;13.90;60.81;100314.11;1746797;81;21069;-39
2021/10/28 17:50:42;;;;;;;15.63;10.55;;;;;;;13.90;60.88;100316.05;1764876;81;21499;-39
2021/10/28 17:53:09;;;;;;;19.52;11.97;;;;;;;13.89;60.92;100312.53;1770942;81;21119;-39
2021/10/28 17:55:35;;;;;;;17.30;12.05;;;;;;;13.85;61.09;100316.33;1755883;81;21580;-39
2021/10/28 17:58:02;;;;;;;15.88;11.60;;;;;;;13.79;61.28;100307.67;1760293;81;21012;-39
2021/10/28 18:00:29;;;;;;;17.23;11.68;;;;;;;13.77;61.46;100315.98;1768229;81;21089;-39
2021/10/28 18:02:55;;;;;;;17.45;11.28;;;;;;;13.76;61.60;100319.84;1756809;81;21041;-39
2021/10/28 18:05:22;;;;;;;17.40;11.55;;;;;;;13.77;61.96;100317.34;1748654;82;21769;-39
2021/10/28 18:07:49;;;;;;;15.43;10.88;;;;;;;13.75;62.16;100316.33;1748424;81;20969;-39
2021/10/28 18:10:16;;;;;;;21.15;11.28;;;;;;;13.73;62.31;100317.84;1762091;81;21001;-39
2021/10/28 18:12:43;;;;;;;16.20;10.95;;;;;;;13.75;62.52;100319.62;1771342;81;21021;-39
2021/10/28 18:15:11;;;;;;;18.10;11.33;;;;;;;13.73;62.71;100327.38;1752353;81;21495;-39
2021/10/28 18:17:39;;;;;;;16.17;11.08;;;;;;;13.73;62.80;100327.38;1763258;81;21138;-39
2021/10/28 18:20:07;;;;;;;17.23;11.45;;;;;;;13.71;62.95;100326.94;1771010;81;21589;-39
2021/10/28 18:22:40;;;;;;;20.52;12.75;;;;;;;13.72;63.03;100325.22;1756468;81;21013;-39
2021/10/28 18:25:08;;;;;;;19.70;13.20;;;;;;;13.74;63.17;100329.75;1767872;81;20958;-39
2021/10/28 18:27:34;;;;;;;17.85;12.65;;;;;;;13.76;63.56;100328.81;1770362;80;21027;-39
2021/10/28 18:30:01;;;;;;;19.17;14.15;;;;;;;13.73;63.99;100329.53;1766019;80;22079;-39
2021/10/28 18:32:28;;;;;;;23.65;13.65;;;;;;;13.68;64.56;100328.45;1748508;82;21524;-39
2021/10/28 18:34:56;;;;;;;18.42;13.10;;;;;;;13.62;64.77;100327.71;1746783;80;20990;-39
2021/10/28 18:37:24;;;;;;;;;;;;;;;13.60;65.05;100328.66;1750543;81;21022;-39
2021/10/28 18:39:51;;;;;;;22.37;12.50;;;;;;;13.65;65.48;100329.74;1760637;80;20168;-39
2021/10/28 18:42:19;;;;;;;16.12;11.83;;;;;;;13.53;65.88;100336.66;1746546;82;21143;-39
2021/10/28 18:44:46;;;;;;;20.05;11.40;;;;;;;13.50;66.38;100334.09;1746256;80;20999;-39
2021/10/28 18:47:15;;;;;;;17.62;11.93;;;;;;;13.47;66.53;100338.30;1763302;80;21063;-39
2021/10/28 18:49:43;;;;;;;16.00;10.78;;;;;;;13.46;66.71;100340.80;1749039;80;20926;-39
2021/10/28 18:52:10;;;;;;;16.82;10.00;;;;;;;13.45;66.83;100343.33;1751181;80;21579;-39
2021/10/28 18:54:37;;;;;;;15.65;10.60;;;;;;;13.48;67.08;100343.97;1769682;80;21180;-39
2021/10/28 18:57:05;;;;;;;15.83;10.70;;;;;;;13.48;67.00;100342.61;1767426;80;21002;-39
2021/10/28 18:59:32;;;;;;;16.70;10.85;;;;;;;13.51;67.04;100349.27;1763387;80;20989;-39
2021/10/28 19:01:59;;;;;;;16.52;11.25;;;;;;;13.55;67.02;100348.80;1768861;80;21342;-39
2021/10/28 19:04:26;;;;;;;18.90;10.93;;;;;;;13.51;67.16;100350.62;1771430;80;21016;-39
2021/10/28 19:06:54;;;;;;;16.42;10.35;;;;;;;13.47;67.21;100353.28;1773657;80;21134;-39
2021/10/28 19:09:20;;;;;;;18.27;12.10;;;;;;;13.49;67.16;100359.17;1763120;80;21089;-39
2021/10/28 19:11:47;;;;;;;13.78;10.58;;;;;;;13.52;67.17;100358.23;1762139;80;21013;-39
2021/10/28 19:14:16;;;;;;;18.07;11.88;;;;;;;13.51;67.19;100358.80;1759643;80;21534;-39
2021/10/28 19:16:43;;;;;;;16.35;11.50;;;;;;;13.49;67.18;100361.89;1768323;80;21041;-39
2021/10/28 19:19:11;;;;;;;17.67;10.60;;;;;;;13.46;67.29;100363.95;1760054;80;21098;-39
2021/10/28 19:21:38;;;;;;;15.85;9.85;;;;;;;13.46;67.23;100368.03;1739691;80;21082;-39
2021/10/28 19:24:06;;;;;;;16.77;11.30;;;;;;;13.48;67.25;100365.76;1753859;80;21075;-39
2021/10/28 19:26:33;;;;;;;17.98;11.33;;;;;;;13.50;67.33;100372.22;1748782;80;21021;-39
2021/10/28 19:29:02;;;;;;;15.15;10.95;;;;;;;13.45;67.41;100373.86;1769295;80;21509;-39
2021/10/28 19:31:33;;;;;;;;;;;;;;;13.41;67.50;100379.20;1750716;82;21490;-39
2021/10/28 19:33:59;;;;;;;19.95;11.43;;;;;;;13.38;67.55;100379.91;1748426;80;20123;-39
2021/10/28 19:46:49;;;;;;;16.57;11.80;;;;;;;13.27;67.75;100382.16;1758241;81;20958;-39
2021/10/28 19:49:16;;;;;;;20.65;11.65;;;;;;;13.20;67.91;100382.79;1772388;80;20941;-39
2021/10/28 19:51:43;;;;;;;15.93;11.30;;;;;;;13.14;68.05;100382.83;1739742;80;21597;-39
2021/10/28 19:54:13;;;;;;;17.15;11.25;;;;;;;13.07;68.22;100390.20;1735326;80;21034;-39
2021/10/28 19:56:40;;;;;;;15.53;10.67;;;;;;;13.06;68.25;100390.58;1752586;81;21138;-39
2021/10/28 19:59:08;;;;;;;17.42;11.78;;;;;;;13.10;68.16;100387.37;1766578;81;21505;-39
2021/10/28 20:01:41;;;;;;;18.15;11.73;;;;;;;13.10;68.06;100386.58;1761105;80;20972;-39
2021/10/28 20:14:58;;;;;;;16.75;10.82;;;;;;;12.99;67.67;100401.27;1753455;80;21071;-39
2021/10/28 20:22:36;;;;;;;17.85;11.35;;;;;;;12.96;67.44;100407.42;1701627;84;21112;-39
2021/10/28 20:25:05;;;;;;;17.73;10.08;;;;;;;12.93;67.45;100402.66;1688758;84;20988;-39
2021/10/28 20:27:33;;;;;;;14.65;10.28;;;;;;;12.94;67.38;100406.41;1710932;82;21049;-39
2021/10/28 20:30:00;;;;;;;19.87;10.72;;;;;;;12.99;67.21;100407.51;1734262;82;21706;-37